sensor_id;sensor_type;location;lat;lon;timestamp;pressure;altitude;pressure_sealevel;temperature;humidity
26436;BME280;15351;52.408;16.826;2022-12-08T00:00:05;100148.39;;;2.56;76.78
26436;BME280;15351;52.408;16.826;2022-12-08T00:02:37;100148.83;;;2.61;76.86
26436;BME280;15351;52.408;16.826;2022-12-08T00:05:08;100158.42;;;2.58;76.66
26436;BME280;15351;52.408;16.826;2022-12-08T00:07:53;100159.05;;;2.56;76.72
26436;BME280;15351;52.408;16.826;2022-12-08T00:10:42;100166.45;;;2.53;76.69
26436;BME280;15351;52.408;16.826;2022-12-08T00:13:09;100170.94;;;2.52;76.72
26436;BME280;15351;52.408;16.826;2022-12-08T00:15:36;100168.90;;;2.50;76.84
26436;BME280;15351;52.408;16.826;2022-12-08T00:18:02;100164.14;;;2.54;76.87
26436;BME280;15351;52.408;16.826;2022-12-08T00:20:30;100161.22;;;2.57;76.93
26436;BME280;15351;52.408;16.826;2022-12-08T00:22:57;100161.86;;;2.64;76.95
26436;BME280;15351;52.408;16.826;2022-12-08T00:25:24;100164.80;;;2.61;76.68
26436;BME280;15351;52.408;16.826;2022-12-08T00:27:51;100158.42;;;2.58;76.60
26436;BME280;15351;52.408;16.826;2022-12-08T00:30:17;100166.10;;;2.52;76.66
26436;BME280;15351;52.408;16.826;2022-12-08T00:32:44;100171.91;;;2.51;76.76
26436;BME280;15351;52.408;16.826;2022-12-08T00:35:10;100172.41;;;2.51;76.77
26436;BME280;15351;52.408;16.826;2022-12-08T00:37:36;100172.02;;;2.50;76.78
26436;BME280;15351;52.408;16.826;2022-12-08T00:40:03;100165.50;;;2.48;76.81
26436;BME280;15351;52.408;16.826;2022-12-08T00:42:30;100174.58;;;2.51;76.74
26436;BME280;15351;52.408;16.826;2022-12-08T00:44:57;100165.20;;;2.42;76.64
26436;BME280;15351;52.408;16.826;2022-12-08T00:47:23;100174.38;;;2.43;76.74
26436;BME280;15351;52.408;16.826;2022-12-08T00:49:50;100171.71;;;2.43;76.88
26436;BME280;15351;52.408;16.826;2022-12-08T00:52:17;100180.67;;;2.42;76.70
26436;BME280;15351;52.408;16.826;2022-12-08T00:54:44;100176.77;;;2.46;76.81
26436;BME280;15351;52.408;16.826;2022-12-08T00:57:11;100187.14;;;2.49;76.73
26436;BME280;15351;52.408;16.826;2022-12-08T00:59:39;100187.77;;;2.47;76.55
26436;BME280;15351;52.408;16.826;2022-12-08T01:02:06;100196.23;;;2.47;76.46
26436;BME280;15351;52.408;16.826;2022-12-08T01:04:32;100201.47;;;2.43;76.68
26436;BME280;15351;52.408;16.826;2022-12-08T01:06:59;100201.77;;;2.49;76.67
26436;BME280;15351;52.408;16.826;2022-12-08T01:09:25;100206.51;;;2.51;76.53
26436;BME280;15351;52.408;16.826;2022-12-08T01:11:52;100206.73;;;2.54;76.47
26436;BME280;15351;52.408;16.826;2022-12-08T01:14:18;100208.55;;;2.53;76.41
26436;BME280;15351;52.408;16.826;2022-12-08T01:16:45;100204.83;;;2.50;76.36
26436;BME280;15351;52.408;16.826;2022-12-08T01:19:12;100213.73;;;2.55;76.46
26436;BME280;15351;52.408;16.826;2022-12-08T01:21:41;100210.10;;;2.56;76.23
26436;BME280;15351;52.408;16.826;2022-12-08T01:24:15;100208.91;;;2.54;76.28
26436;BME280;15351;52.408;16.826;2022-12-08T01:26:46;100207.17;;;2.59;76.17
26436;BME280;15351;52.408;16.826;2022-12-08T01:29:14;100207.70;;;2.53;76.01
26436;BME280;15351;52.408;16.826;2022-12-08T01:31:41;100205.11;;;2.42;75.93
26436;BME280;15351;52.408;16.826;2022-12-08T01:34:09;100205.86;;;2.39;76.21
26436;BME280;15351;52.408;16.826;2022-12-08T01:36:36;100189.42;;;2.34;76.35
26436;BME280;15351;52.408;16.826;2022-12-08T01:39:05;100201.67;;;2.51;76.30
26436;BME280;15351;52.408;16.826;2022-12-08T01:41:36;100209.52;;;2.52;76.12
26436;BME280;15351;52.408;16.826;2022-12-08T01:46:45;100210.23;;;2.54;76.06
26436;BME280;15351;52.408;16.826;2022-12-08T01:49:17;100215.91;;;2.55;75.89
26436;BME280;15351;52.408;16.826;2022-12-08T01:54:47;100210.21;;;2.40;75.92
26436;BME280;15351;52.408;16.826;2022-12-08T01:57:19;100215.05;;;2.40;76.16
26436;BME280;15351;52.408;16.826;2022-12-08T01:59:50;100220.14;;;2.38;75.98
26436;BME280;15351;52.408;16.826;2022-12-08T02:02:22;100214.21;;;2.34;76.18
26436;BME280;15351;52.408;16.826;2022-12-08T02:04:50;100198.95;;;2.21;76.24
26436;BME280;15351;52.408;16.826;2022-12-08T02:07:16;100217.53;;;2.27;76.25
26436;BME280;15351;52.408;16.826;2022-12-08T02:09:44;100215.62;;;2.23;76.49
26436;BME280;15351;52.408;16.826;2022-12-08T02:12:11;100219.09;;;2.29;76.70
26436;BME280;15351;52.408;16.826;2022-12-08T02:14:38;100217.00;;;2.33;76.60
26436;BME280;15351;52.408;16.826;2022-12-08T02:17:35;100222.23;;;2.29;76.47
26436;BME280;15351;52.408;16.826;2022-12-08T02:23:14;100221.30;;;2.24;76.70
26436;BME280;15351;52.408;16.826;2022-12-08T02:34:21;100220.46;;;2.24;76.71
26436;BME280;15351;52.408;16.826;2022-12-08T02:37:17;100228.80;;;2.25;76.73
26436;BME280;15351;52.408;16.826;2022-12-08T02:40:17;100233.90;;;2.17;76.64
26436;BME280;15351;52.408;16.826;2022-12-08T02:45:30;100239.84;;;2.15;76.88
26436;BME280;15351;52.408;16.826;2022-12-08T02:47:59;100237.05;;;2.17;76.82
26436;BME280;15351;52.408;16.826;2022-12-08T02:50:27;100230.04;;;2.16;76.77
26436;BME280;15351;52.408;16.826;2022-12-08T02:52:54;100234.78;;;2.12;76.73
26436;BME280;15351;52.408;16.826;2022-12-08T02:55:30;100232.38;;;2.09;76.74
26436;BME280;15351;52.408;16.826;2022-12-08T03:04:07;100228.88;;;2.09;76.82
26436;BME280;15351;52.408;16.826;2022-12-08T03:06:49;100212.83;;;2.05;76.80
26436;BME280;15351;52.408;16.826;2022-12-08T03:14:47;100198.25;;;2.20;76.55
26436;BME280;15351;52.408;16.826;2022-12-08T03:17:20;100201.98;;;2.17;76.73
26436;BME280;15351;52.408;16.826;2022-12-08T03:19:48;100204.41;;;2.20;76.70
26436;BME280;15351;52.408;16.826;2022-12-08T03:22:18;100207.29;;;2.22;76.78
26436;BME280;15351;52.408;16.826;2022-12-08T03:24:47;100213.55;;;2.27;76.69
26436;BME280;15351;52.408;16.826;2022-12-08T03:27:17;100201.93;;;2.28;76.66
26436;BME280;15351;52.408;16.826;2022-12-08T03:29:49;100201.31;;;2.30;76.61
26436;BME280;15351;52.408;16.826;2022-12-08T03:32:36;100203.26;;;2.28;76.50
26436;BME280;15351;52.408;16.826;2022-12-08T03:35:10;100204.95;;;2.29;76.60
26436;BME280;15351;52.408;16.826;2022-12-08T03:37:39;100200.47;;;2.29;76.56
26436;BME280;15351;52.408;16.826;2022-12-08T03:40:09;100202.55;;;2.26;76.58
26436;BME280;15351;52.408;16.826;2022-12-08T03:42:39;100199.09;;;2.20;76.60
26436;BME280;15351;52.408;16.826;2022-12-08T03:45:06;100200.66;;;2.17;76.66
26436;BME280;15351;52.408;16.826;2022-12-08T03:47:33;100193.78;;;2.15;76.68
26436;BME280;15351;52.408;16.826;2022-12-08T03:50:01;100190.02;;;2.17;76.97
26436;BME280;15351;52.408;16.826;2022-12-08T03:52:28;100187.97;;;2.20;76.75
26436;BME280;15351;52.408;16.826;2022-12-08T03:54:55;100191.70;;;2.18;76.75
26436;BME280;15351;52.408;16.826;2022-12-08T03:57:21;100190.02;;;2.17;76.74
26436;BME280;15351;52.408;16.826;2022-12-08T03:59:47;100190.84;;;2.23;76.76
26436;BME280;15351;52.408;16.826;2022-12-08T04:02:14;100184.64;;;2.28;76.73
26436;BME280;15351;52.408;16.826;2022-12-08T04:04:40;100184.10;;;2.34;76.62
26436;BME280;15351;52.408;16.826;2022-12-08T04:07:06;100185.82;;;2.35;76.49
26436;BME280;15351;52.408;16.826;2022-12-08T04:09:32;100181.34;;;2.35;76.48
26436;BME280;15351;52.408;16.826;2022-12-08T04:11:59;100184.22;;;2.38;76.30
26436;BME280;15351;52.408;16.826;2022-12-08T04:14:27;100182.89;;;2.38;76.28
26436;BME280;15351;52.408;16.826;2022-12-08T04:16:54;100189.90;;;2.39;76.21
26436;BME280;15351;52.408;16.826;2022-12-08T04:19:20;100189.41;;;2.39;76.11
26436;BME280;15351;52.408;16.826;2022-12-08T04:21:47;100188.84;;;2.36;76.08
26436;BME280;15351;52.408;16.826;2022-12-08T04:24:13;100186.04;;;2.37;76.23
26436;BME280;15351;52.408;16.826;2022-12-08T04:26:40;100187.95;;;2.41;76.31
26436;BME280;15351;52.408;16.826;2022-12-08T04:29:06;100184.26;;;2.47;76.16
26436;BME280;15351;52.408;16.826;2022-12-08T04:31:33;100177.73;;;2.45;76.02
26436;BME280;15351;52.408;16.826;2022-12-08T04:33:59;100180.54;;;2.44;76.01
26436;BME280;15351;52.408;16.826;2022-12-08T04:36:25;100181.30;;;2.41;76.00
26436;BME280;15351;52.408;16.826;2022-12-08T04:38:52;100178.28;;;2.40;76.12
26436;BME280;15351;52.408;16.826;2022-12-08T04:41:19;100179.96;;;2.41;76.13
26436;BME280;15351;52.408;16.826;2022-12-08T04:43:45;100174.51;;;2.42;76.17
26436;BME280;15351;52.408;16.826;2022-12-08T04:46:12;100170.88;;;2.43;76.18
26436;BME280;15351;52.408;16.826;2022-12-08T04:48:39;100165.01;;;2.49;76.19
26436;BME280;15351;52.408;16.826;2022-12-08T04:51:16;100164.91;;;2.50;76.17
26436;BME280;15351;52.408;16.826;2022-12-08T04:53:45;100169.96;;;2.53;76.06
26436;BME280;15351;52.408;16.826;2022-12-08T04:56:18;100170.31;;;2.54;76.12
26436;BME280;15351;52.408;16.826;2022-12-08T04:58:44;100167.02;;;2.56;75.97
26436;BME280;15351;52.408;16.826;2022-12-08T05:01:11;100168.84;;;2.56;75.99
26436;BME280;15351;52.408;16.826;2022-12-08T05:03:39;100176.34;;;2.56;75.98
26436;BME280;15351;52.408;16.826;2022-12-08T05:06:08;100168.92;;;2.60;75.86
26436;BME280;15351;52.408;16.826;2022-12-08T05:08:35;100167.81;;;2.62;75.85
26436;BME280;15351;52.408;16.826;2022-12-08T05:11:03;100160.89;;;2.65;75.70
26436;BME280;15351;52.408;16.826;2022-12-08T05:13:31;100164.39;;;2.65;75.52
26436;BME280;15351;52.408;16.826;2022-12-08T05:16:12;100162.84;;;2.63;75.44
26436;BME280;15351;52.408;16.826;2022-12-08T05:18:41;100163.06;;;2.65;75.38
26436;BME280;15351;52.408;16.826;2022-12-08T05:21:08;100158.61;;;2.66;75.46
26436;BME280;15351;52.408;16.826;2022-12-08T05:23:35;100157.28;;;2.66;75.38
26436;BME280;15351;52.408;16.826;2022-12-08T05:26:02;100155.56;;;2.65;75.37
26436;BME280;15351;52.408;16.826;2022-12-08T05:28:29;100154.86;;;2.63;75.40
26436;BME280;15351;52.408;16.826;2022-12-08T05:30:59;100148.83;;;2.61;75.25
26436;BME280;15351;52.408;16.826;2022-12-08T05:33:27;100147.85;;;2.62;75.44
26436;BME280;15351;52.408;16.826;2022-12-08T05:35:53;100146.50;;;2.67;75.42
26436;BME280;15351;52.408;16.826;2022-12-08T05:38:20;100146.72;;;2.70;75.35
26436;BME280;15351;52.408;16.826;2022-12-08T05:40:46;100147.83;;;2.67;75.34
26436;BME280;15351;52.408;16.826;2022-12-08T05:43:14;100153.64;;;2.67;75.51
26436;BME280;15351;52.408;16.826;2022-12-08T05:45:41;100153.86;;;2.69;75.52
26436;BME280;15351;52.408;16.826;2022-12-08T05:48:10;100143.64;;;2.74;75.67
26436;BME280;15351;52.408;16.826;2022-12-08T05:50:39;100142.52;;;2.77;75.64
26436;BME280;15351;52.408;16.826;2022-12-08T05:53:06;100145.05;;;2.78;75.62
26436;BME280;15351;52.408;16.826;2022-12-08T05:55:33;100144.56;;;2.79;75.64
26436;BME280;15351;52.408;16.826;2022-12-08T05:58:05;100139.38;;;2.77;75.84
26436;BME280;15351;52.408;16.826;2022-12-08T06:00:32;100135.59;;;2.80;75.94
26436;BME280;15351;52.408;16.826;2022-12-08T06:03:00;100137.66;;;2.82;76.10
26436;BME280;15351;52.408;16.826;2022-12-08T06:05:26;100142.84;;;2.83;76.21
26436;BME280;15351;52.408;16.826;2022-12-08T06:07:53;100137.95;;;2.88;76.26
26436;BME280;15351;52.408;16.826;2022-12-08T06:10:19;100145.09;;;2.87;76.19
26436;BME280;15351;52.408;16.826;2022-12-08T06:12:46;100144.20;;;2.92;76.31
26436;BME280;15351;52.408;16.826;2022-12-08T06:15:14;100153.23;;;2.95;76.40
26436;BME280;15351;52.408;16.826;2022-12-08T06:17:41;100141.98;;;2.97;76.40
26436;BME280;15351;52.408;16.826;2022-12-08T06:20:10;100141.61;;;2.96;76.40
26436;BME280;15351;52.408;16.826;2022-12-08T06:22:37;100147.61;;;3.04;76.28
26436;BME280;15351;52.408;16.826;2022-12-08T06:25:06;100149.15;;;3.06;76.43
26436;BME280;15351;52.408;16.826;2022-12-08T06:27:33;100148.34;;;3.15;76.51
26436;BME280;15351;52.408;16.826;2022-12-08T06:30:00;100136.29;;;3.20;76.46
26436;BME280;15351;52.408;16.826;2022-12-08T06:32:27;100133.83;;;3.23;76.38
26436;BME280;15351;52.408;16.826;2022-12-08T06:34:54;100131.48;;;3.29;76.29
26436;BME280;15351;52.408;16.826;2022-12-08T06:37:21;100137.02;;;3.31;76.29
26436;BME280;15351;52.408;16.826;2022-12-08T06:39:47;100130.89;;;3.26;76.34
26436;BME280;15351;52.408;16.826;2022-12-08T06:42:13;100130.61;;;3.19;76.48
26436;BME280;15351;52.408;16.826;2022-12-08T06:44:58;100132.71;;;3.16;76.52
26436;BME280;15351;52.408;16.826;2022-12-08T06:47:25;100127.66;;;3.13;76.63
26436;BME280;15351;52.408;16.826;2022-12-08T06:49:52;100132.61;;;3.12;76.75
26436;BME280;15351;52.408;16.826;2022-12-08T06:52:20;100133.45;;;3.12;77.03
26436;BME280;15351;52.408;16.826;2022-12-08T06:54:47;100134.22;;;3.09;77.17
26436;BME280;15351;52.408;16.826;2022-12-08T06:57:14;100129.03;;;3.08;77.17
26436;BME280;15351;52.408;16.826;2022-12-08T06:59:41;100131.48;;;3.05;77.40
26436;BME280;15351;52.408;16.826;2022-12-08T07:02:08;100138.49;;;3.06;77.54
26436;BME280;15351;52.408;16.826;2022-12-08T07:04:35;100133.94;;;3.12;77.74
26436;BME280;15351;52.408;16.826;2022-12-08T07:07:02;100137.69;;;3.15;77.88
26436;BME280;15351;52.408;16.826;2022-12-08T07:09:28;100131.87;;;3.25;77.98
26436;BME280;15351;52.408;16.826;2022-12-08T07:11:56;100136.73;;;3.34;77.79
26436;BME280;15351;52.408;16.826;2022-12-08T07:14:22;100133.37;;;3.42;77.81
26436;BME280;15351;52.408;16.826;2022-12-08T07:16:50;100135.19;;;3.41;77.74
26436;BME280;15351;52.408;16.826;2022-12-08T07:19:18;100133.61;;;3.44;77.79
26436;BME280;15351;52.408;16.826;2022-12-08T07:21:46;100130.31;;;3.46;77.88
26436;BME280;15351;52.408;16.826;2022-12-08T07:24:13;100134.02;;;3.49;77.73
26436;BME280;15351;52.408;16.826;2022-12-08T07:26:39;100127.05;;;3.43;77.65
26436;BME280;15351;52.408;16.826;2022-12-08T07:29:06;100130.14;;;3.38;77.87
26436;BME280;15351;52.408;16.826;2022-12-08T07:31:33;100125.80;;;3.37;78.05
26436;BME280;15351;52.408;16.826;2022-12-08T07:34:01;100125.45;;;3.36;78.18
26436;BME280;15351;52.408;16.826;2022-12-08T07:36:27;100123.13;;;3.37;78.26
26436;BME280;15351;52.408;16.826;2022-12-08T07:38:57;100125.16;;;3.39;78.26
26436;BME280;15351;52.408;16.826;2022-12-08T07:41:24;100120.88;;;3.42;78.38
26436;BME280;15351;52.408;16.826;2022-12-08T07:43:52;100114.22;;;3.42;78.39
26436;BME280;15351;52.408;16.826;2022-12-08T07:46:21;100113.97;;;3.45;78.53
26436;BME280;15351;52.408;16.826;2022-12-08T07:48:51;100118.66;;;3.47;78.46
26436;BME280;15351;52.408;16.826;2022-12-08T07:51:20;100114.03;;;3.49;78.48
26436;BME280;15351;52.408;16.826;2022-12-08T07:53:48;100112.77;;;3.53;78.52
26436;BME280;15351;52.408;16.826;2022-12-08T07:56:16;100103.70;;;3.59;78.69
26436;BME280;15351;52.408;16.826;2022-12-08T07:58:44;100098.27;;;3.61;78.57
26436;BME280;15351;52.408;16.826;2022-12-08T08:01:26;100098.38;;;3.69;78.42
26436;BME280;15351;52.408;16.826;2022-12-08T08:03:58;100107.08;;;3.71;78.34
26436;BME280;15351;52.408;16.826;2022-12-08T08:06:30;100104.00;;;3.66;78.23
26436;BME280;15351;52.408;16.826;2022-12-08T08:08:58;100101.69;;;3.67;78.38
26436;BME280;15351;52.408;16.826;2022-12-08T08:11:25;100101.48;;;3.64;78.41
26436;BME280;15351;52.408;16.826;2022-12-08T08:13:53;100108.70;;;3.68;78.41
26436;BME280;15351;52.408;16.826;2022-12-08T08:16:20;100100.30;;;3.63;78.33
26436;BME280;15351;52.408;16.826;2022-12-08T08:18:49;100102.86;;;3.59;78.38
26436;BME280;15351;52.408;16.826;2022-12-08T08:21:17;100102.53;;;3.49;78.52
26436;BME280;15351;52.408;16.826;2022-12-08T08:23:44;100104.29;;;3.44;78.84
26436;BME280;15351;52.408;16.826;2022-12-08T08:26:11;100095.02;;;3.48;79.09
26436;BME280;15351;52.408;16.826;2022-12-08T08:28:37;100101.41;;;3.51;79.08
26436;BME280;15351;52.408;16.826;2022-12-08T08:31:04;100098.39;;;3.50;79.15
26436;BME280;15351;52.408;16.826;2022-12-08T08:33:31;100101.48;;;3.46;79.20
26436;BME280;15351;52.408;16.826;2022-12-08T08:35:58;100101.05;;;3.50;79.39
26436;BME280;15351;52.408;16.826;2022-12-08T08:38:24;100101.81;;;3.56;79.60
26436;BME280;15351;52.408;16.826;2022-12-08T08:40:50;100105.77;;;3.61;79.56
26436;BME280;15351;52.408;16.826;2022-12-08T08:43:17;100107.02;;;3.67;79.40
26436;BME280;15351;52.408;16.826;2022-12-08T08:45:57;100104.78;;;3.62;79.32
26436;BME280;15351;52.408;16.826;2022-12-08T08:48:27;100104.64;;;3.64;79.50
26436;BME280;15351;52.408;16.826;2022-12-08T08:50:55;100110.59;;;3.71;79.67
26436;BME280;15351;52.408;16.826;2022-12-08T08:53:26;100105.39;;;3.70;79.50
26436;BME280;15351;52.408;16.826;2022-12-08T08:55:52;100105.75;;;3.71;79.57
26436;BME280;15351;52.408;16.826;2022-12-08T08:58:18;100100.00;;;3.66;79.50
26436;BME280;15351;52.408;16.826;2022-12-08T09:00:46;100108.06;;;3.70;79.73
26436;BME280;15351;52.408;16.826;2022-12-08T09:03:12;100103.02;;;3.67;79.69
26436;BME280;15351;52.408;16.826;2022-12-08T09:05:38;100106.03;;;3.68;79.89
26436;BME280;15351;52.408;16.826;2022-12-08T09:08:06;100105.83;;;3.65;79.88
26436;BME280;15351;52.408;16.826;2022-12-08T09:10:33;100103.16;;;3.65;79.86
26436;BME280;15351;52.408;16.826;2022-12-08T09:13:00;100100.20;;;3.68;80.01
26436;BME280;15351;52.408;16.826;2022-12-08T09:15:28;100104.35;;;3.67;80.02
26436;BME280;15351;52.408;16.826;2022-12-08T09:17:55;100104.47;;;3.74;80.32
26436;BME280;15351;52.408;16.826;2022-12-08T09:20:21;100096.62;;;3.82;80.29
26436;BME280;15351;52.408;16.826;2022-12-08T09:22:50;100096.05;;;3.88;80.17
26436;BME280;15351;52.408;16.826;2022-12-08T09:25:16;100092.83;;;3.94;80.18
26436;BME280;15351;52.408;16.826;2022-12-08T09:27:42;100093.52;;;3.96;80.09
26436;BME280;15351;52.408;16.826;2022-12-08T09:30:09;100084.87;;;3.98;80.11
26436;BME280;15351;52.408;16.826;2022-12-08T09:32:37;100085.63;;;4.04;80.30
26436;BME280;15351;52.408;16.826;2022-12-08T09:35:04;100084.09;;;4.11;80.16
26436;BME280;15351;52.408;16.826;2022-12-08T09:37:31;100082.95;;;4.13;80.12
26436;BME280;15351;52.408;16.826;2022-12-08T09:39:58;100076.62;;;4.14;80.11
26436;BME280;15351;52.408;16.826;2022-12-08T09:42:44;100075.20;;;4.19;80.21
26436;BME280;15351;52.408;16.826;2022-12-08T09:45:16;100068.56;;;4.33;80.44
26436;BME280;15351;52.408;16.826;2022-12-08T09:47:47;100075.28;;;4.37;80.15
26436;BME280;15351;52.408;16.826;2022-12-08T09:50:56;100076.42;;;4.34;79.96
26436;BME280;15351;52.408;16.826;2022-12-08T09:56:11;100069.25;;;4.35;80.21
26436;BME280;15351;52.408;16.826;2022-12-08T10:01:33;100071.20;;;4.42;80.06
26436;BME280;15351;52.408;16.826;2022-12-08T10:04:05;100069.73;;;4.43;80.05
26436;BME280;15351;52.408;16.826;2022-12-08T10:17:45;100056.77;;;4.48;80.15
26436;BME280;15351;52.408;16.826;2022-12-08T10:20:23;100051.77;;;4.49;80.13
26436;BME280;15351;52.408;16.826;2022-12-08T10:22:56;100054.59;;;4.48;80.15
26436;BME280;15351;52.408;16.826;2022-12-08T10:25:30;100057.66;;;4.53;80.17
26436;BME280;15351;52.408;16.826;2022-12-08T10:28:01;100052.39;;;4.57;80.18
26436;BME280;15351;52.408;16.826;2022-12-08T10:30:30;100054.27;;;4.60;80.10
26436;BME280;15351;52.408;16.826;2022-12-08T10:32:57;100053.13;;;4.62;80.17
26436;BME280;15351;52.408;16.826;2022-12-08T10:35:24;100054.95;;;4.62;80.15
26436;BME280;15351;52.408;16.826;2022-12-08T10:37:57;100054.45;;;4.62;80.01
26436;BME280;15351;52.408;16.826;2022-12-08T10:40:34;100059.65;;;4.64;80.06
26436;BME280;15351;52.408;16.826;2022-12-08T10:43:02;100059.45;;;4.62;79.89
26436;BME280;15351;52.408;16.826;2022-12-08T10:45:37;100051.59;;;4.60;79.99
26436;BME280;15351;52.408;16.826;2022-12-08T10:48:28;100051.59;;;4.60;80.12
26436;BME280;15351;52.408;16.826;2022-12-08T10:50:58;100055.30;;;4.63;80.10
26436;BME280;15351;52.408;16.826;2022-12-08T10:53:29;100054.11;;;4.62;79.94
26436;BME280;15351;52.408;16.826;2022-12-08T11:01:27;100051.55;;;4.56;80.25
26436;BME280;15351;52.408;16.826;2022-12-08T11:03:59;100057.78;;;4.61;80.24
26436;BME280;15351;52.408;16.826;2022-12-08T11:06:31;100052.93;;;4.60;80.13
26436;BME280;15351;52.408;16.826;2022-12-08T11:09:19;100051.63;;;4.51;80.03
26436;BME280;15351;52.408;16.826;2022-12-08T11:11:48;100049.55;;;4.45;80.25
26436;BME280;15351;52.408;16.826;2022-12-08T11:14:28;100052.56;;;4.46;80.53
26436;BME280;15351;52.408;16.826;2022-12-08T11:17:11;100051.55;;;4.56;80.74
26436;BME280;15351;52.408;16.826;2022-12-08T11:20:00;100042.70;;;4.56;80.59
26436;BME280;15351;52.408;16.826;2022-12-08T11:22:43;100047.09;;;4.61;80.40
26436;BME280;15351;52.408;16.826;2022-12-08T11:25:22;100052.05;;;4.56;80.58
26436;BME280;15351;52.408;16.826;2022-12-08T11:27:50;100047.09;;;4.61;80.93
26436;BME280;15351;52.408;16.826;2022-12-08T11:30:21;100049.84;;;4.68;81.01
26436;BME280;15351;52.408;16.826;2022-12-08T11:32:52;100049.73;;;4.70;80.91
26436;BME280;15351;52.408;16.826;2022-12-08T11:35:27;100044.39;;;4.70;80.81
26436;BME280;15351;52.408;16.826;2022-12-08T11:38:04;100037.59;;;4.75;81.11
26436;BME280;15351;52.408;16.826;2022-12-08T11:40:37;100038.48;;;4.80;81.01
26436;BME280;15351;52.408;16.826;2022-12-08T11:46:17;100029.47;;;4.94;81.39
26436;BME280;15351;52.408;16.826;2022-12-08T11:48:58;100030.78;;;5.07;81.19
26436;BME280;15351;52.408;16.826;2022-12-08T11:51:34;100027.56;;;5.17;80.99
26436;BME280;15351;52.408;16.826;2022-12-08T11:54:29;100023.64;;;5.11;80.79
26436;BME280;15351;52.408;16.826;2022-12-08T11:57:00;100022.49;;;5.14;80.99
26436;BME280;15351;52.408;16.826;2022-12-08T11:59:35;100017.06;;;5.19;81.01
26436;BME280;15351;52.408;16.826;2022-12-08T12:02:17;100015.09;;;5.25;80.98
26436;BME280;15351;52.408;16.826;2022-12-08T12:13:53;100010.56;;;5.39;80.73
26436;BME280;15351;52.408;16.826;2022-12-08T12:19:10;100003.34;;;5.35;80.58
26436;BME280;15351;52.408;16.826;2022-12-08T12:21:38;100010.47;;;5.31;80.51
26436;BME280;15351;52.408;16.826;2022-12-08T12:24:19;100005.77;;;5.29;80.62
26436;BME280;15351;52.408;16.826;2022-12-08T12:26:53;100004.41;;;5.25;80.51
26436;BME280;15351;52.408;16.826;2022-12-08T12:29:34;100001.20;;;5.22;80.41
26436;BME280;15351;52.408;16.826;2022-12-08T12:32:07;99995.36;;;5.22;80.51
26436;BME280;15351;52.408;16.826;2022-12-08T12:34:58;99990.05;;;5.26;80.69
26436;BME280;15351;52.408;16.826;2022-12-08T12:37:38;99993.09;;;5.31;80.71
26436;BME280;15351;52.408;16.826;2022-12-08T12:40:22;99996.14;;;5.32;80.63
26436;BME280;15351;52.408;16.826;2022-12-08T12:45:31;99991.84;;;5.39;80.44
26436;BME280;15351;52.408;16.826;2022-12-08T12:50:46;99990.38;;;5.44;80.54
26436;BME280;15351;52.408;16.826;2022-12-08T12:56:02;99984.43;;;5.50;80.46
26436;BME280;15351;52.408;16.826;2022-12-08T13:04:03;99957.42;;;5.40;80.66
26436;BME280;15351;52.408;16.826;2022-12-08T13:06:44;99977.47;;;5.61;80.66
26436;BME280;15351;52.408;16.826;2022-12-08T13:09:25;99975.35;;;5.64;80.38
26436;BME280;15351;52.408;16.826;2022-12-08T13:11:53;99972.02;;;5.66;80.26
26436;BME280;15351;52.408;16.826;2022-12-08T13:14:34;99981.14;;;5.60;80.23
26436;BME280;15351;52.408;16.826;2022-12-08T13:17:04;99983.64;;;5.57;80.35
26436;BME280;15351;52.408;16.826;2022-12-08T13:19:35;99980.64;;;5.60;80.53
26436;BME280;15351;52.408;16.826;2022-12-08T13:22:44;99979.65;;;5.61;80.36
26436;BME280;15351;52.408;16.826;2022-12-08T13:25:38;99981.83;;;5.62;80.34
26436;BME280;15351;52.408;16.826;2022-12-08T13:27:31;99979.48;;;5.63;80.50
26436;BME280;15351;52.408;16.826;2022-12-08T13:33:37;99973.09;;;5.73;80.49
26436;BME280;15351;52.408;16.826;2022-12-08T13:36:16;99978.52;;;5.81;80.18
26436;BME280;15351;52.408;16.826;2022-12-08T13:38:46;99976.00;;;5.79;79.88
26436;BME280;15351;52.408;16.826;2022-12-08T13:41:20;99974.29;;;5.78;79.99
26436;BME280;15351;52.408;16.826;2022-12-08T13:44:08;99969.81;;;5.79;80.04
26436;BME280;15351;52.408;16.826;2022-12-08T13:46:48;99968.10;;;5.78;79.90
26436;BME280;15351;52.408;16.826;2022-12-08T13:49:23;99972.11;;;5.78;79.80
26436;BME280;15351;52.408;16.826;2022-12-08T13:51:55;99964.59;;;5.77;79.67
26436;BME280;15351;52.408;16.826;2022-12-08T13:54:31;99964.56;;;5.73;79.75
26436;BME280;15351;52.408;16.826;2022-12-08T13:57:02;99964.23;;;5.73;79.83
26436;BME280;15351;52.408;16.826;2022-12-08T13:59:32;99971.27;;;5.77;79.93
26436;BME280;15351;52.408;16.826;2022-12-08T14:02:19;99965.30;;;5.79;79.76
26436;BME280;15351;52.408;16.826;2022-12-08T14:05:06;99965.30;;;5.79;79.54
26436;BME280;15351;52.408;16.826;2022-12-08T14:07:35;99957.40;;;5.78;79.61
26436;BME280;15351;52.408;16.826;2022-12-08T14:10:05;99966.48;;;5.81;79.71
26436;BME280;15351;52.408;16.826;2022-12-08T14:12:54;99955.47;;;5.88;79.72
26436;BME280;15351;52.408;16.826;2022-12-08T14:15:24;99955.81;;;5.89;79.21
26436;BME280;15351;52.408;16.826;2022-12-08T14:17:52;99946.92;;;5.84;79.19
26436;BME280;15351;52.408;16.826;2022-12-08T14:22:58;99948.36;;;5.75;79.17
26436;BME280;15351;52.408;16.826;2022-12-08T14:25:26;99951.53;;;5.74;79.28
26436;BME280;15351;52.408;16.826;2022-12-08T14:27:58;99957.72;;;5.75;79.17
26436;BME280;15351;52.408;16.826;2022-12-08T14:30:34;99935.83;;;5.58;79.11
26436;BME280;15351;52.408;16.826;2022-12-08T14:33:04;99963.64;;;5.82;79.10
26436;BME280;15351;52.408;16.826;2022-12-08T14:35:36;99964.98;;;5.82;78.90